createdAt,value
2018-12-01T00:01:36.453Z,-2.05
2018-12-01T00:04:04.800Z,-2.02
2018-12-01T00:06:33.149Z,-2.05
2018-12-01T00:09:01.478Z,-2.08
2018-12-01T00:11:29.821Z,-2.11
2018-12-01T00:13:58.147Z,-2.14
2018-12-01T00:16:26.487Z,-2.16
2018-12-01T00:18:54.836Z,-2.20
2018-12-01T00:21:23.175Z,-2.21
2018-12-01T00:23:51.515Z,-2.25
2018-12-01T00:26:19.861Z,-2.26
2018-12-01T00:28:48.201Z,-2.31
2018-12-01T00:31:16.547Z,-2.32
2018-12-01T00:33:44.873Z,-2.36
2018-12-01T00:36:13.206Z,-2.40
2018-12-01T00:38:41.558Z,-2.46
2018-12-01T00:41:09.888Z,-2.49
2018-12-01T00:43:38.219Z,-2.48
2018-12-01T00:46:06.547Z,-2.47
2018-12-01T00:48:34.886Z,-2.52
2018-12-01T00:51:03.689Z,-2.62
2018-12-01T00:53:32.030Z,-2.64
2018-12-01T00:56:00.363Z,-2.63
2018-12-01T00:58:28.701Z,-2.67
2018-12-01T01:00:57.040Z,-2.68
2018-12-01T01:03:25.598Z,-2.71
2018-12-01T01:05:53.749Z,-2.75
2018-12-01T01:08:22.078Z,-2.78
2018-12-01T01:10:50.434Z,-2.79
2018-12-01T01:13:18.768Z,-2.76
2018-12-01T01:15:47.090Z,-2.76
2018-12-01T01:18:15.425Z,-2.76
2018-12-01T01:20:43.750Z,-2.80
2018-12-01T01:23:12.100Z,-2.82
2018-12-01T01:25:40.444Z,-2.83
2018-12-01T01:28:08.797Z,-2.86
2018-12-01T01:30:37.138Z,-2.87
2018-12-01T01:33:05.485Z,-2.89
2018-12-01T01:35:34.137Z,-2.88
2018-12-01T01:38:02.470Z,-2.89
2018-12-01T01:40:30.791Z,-2.88
2018-12-01T01:42:59.130Z,-2.85
2018-12-01T01:45:27.452Z,-2.83
2018-12-01T01:47:55.793Z,-2.82
2018-12-01T01:50:24.124Z,-2.84
2018-12-01T01:52:52.458Z,-2.84
2018-12-01T01:55:20.782Z,-2.84
2018-12-01T01:57:49.133Z,-2.89
2018-12-01T02:00:17.484Z,-2.95
2018-12-01T02:02:45.803Z,-2.95
2018-12-01T02:05:14.132Z,-2.95
2018-12-01T02:07:42.460Z,-3.01
2018-12-01T02:10:10.784Z,-3.06
2018-12-01T02:12:39.119Z,-3.05
2018-12-01T02:15:07.464Z,-3.08
2018-12-01T02:17:35.794Z,-3.11
2018-12-01T02:20:04.137Z,-3.13
2018-12-01T02:22:32.475Z,-3.14
2018-12-01T02:25:00.803Z,-3.17
2018-12-01T02:27:29.130Z,-3.19
2018-12-01T02:29:57.464Z,-3.20
2018-12-01T02:32:25.805Z,-3.19
2018-12-01T02:34:54.135Z,-3.18
2018-12-01T02:37:22.463Z,-3.19
2018-12-01T02:39:50.787Z,-3.21
2018-12-01T02:42:19.113Z,-3.23
2018-12-01T02:44:59.308Z,-3.26
2018-12-01T02:47:27.642Z,-3.23
2018-12-01T02:49:55.978Z,-3.22
2018-12-01T02:52:24.310Z,-3.25
2018-12-01T02:54:52.635Z,-3.32
2018-12-01T02:57:20.969Z,-3.37
2018-12-01T02:59:49.296Z,-3.41
2018-12-01T03:02:17.633Z,-3.41
2018-12-01T03:04:45.965Z,-3.41
2018-12-01T03:07:14.284Z,-3.41
2018-12-01T03:09:42.638Z,-3.39
2018-12-01T03:12:10.943Z,-3.41
2018-12-01T03:14:39.287Z,-3.44
2018-12-01T03:17:07.603Z,-3.45
2018-12-01T03:19:35.957Z,-3.45
2018-12-01T03:22:04.261Z,-3.46
2018-12-01T03:24:32.593Z,-3.47
2018-12-01T03:27:00.955Z,-3.46
2018-12-01T03:29:29.340Z,-3.46
2018-12-01T03:31:57.666Z,-3.46
2018-12-01T03:34:26.010Z,-3.53
2018-12-01T03:36:54.337Z,-3.55
2018-12-01T03:39:22.665Z,-3.53
2018-12-01T03:41:50.998Z,-3.52
2018-12-01T03:44:19.323Z,-3.52
2018-12-01T03:46:47.665Z,-3.53
2018-12-01T03:49:16.223Z,-3.56
2018-12-01T03:51:44.324Z,-3.60
2018-12-01T03:54:12.645Z,-3.61
2018-12-01T03:56:40.975Z,-3.61
2018-12-01T03:59:09.304Z,-3.57
2018-12-01T04:01:37.637Z,-3.53
2018-12-01T04:04:06.188Z,-3.55
2018-12-01T04:06:34.297Z,-3.54
2018-12-01T04:09:02.634Z,-3.54
2018-12-01T04:11:30.963Z,-3.55
2018-12-01T04:13:59.290Z,-3.54
2018-12-01T04:16:27.628Z,-3.57
2018-12-01T04:18:55.972Z,-3.59
2018-12-01T04:21:24.299Z,-3.60
2018-12-01T04:23:52.629Z,-3.58
2018-12-01T04:26:20.962Z,-3.58
2018-12-01T04:28:49.296Z,-3.59
2018-12-01T04:31:17.667Z,-3.57
2018-12-01T04:33:46.012Z,-3.59
2018-12-01T04:36:14.343Z,-3.61
2018-12-01T04:38:42.677Z,-3.60
2018-12-01T04:41:11.018Z,-3.61
2018-12-01T04:43:39.350Z,-3.67
2018-12-01T04:46:07.669Z,-3.66
2018-12-01T04:48:36.016Z,-3.65
2018-12-01T04:51:04.344Z,-3.61
2018-12-01T04:53:32.693Z,-3.58
2018-12-01T04:56:01.029Z,-3.56
2018-12-01T04:58:29.359Z,-3.54
2018-12-01T05:00:57.686Z,-3.55
2018-12-01T05:03:26.020Z,-3.56
2018-12-01T05:05:54.361Z,-3.59
2018-12-01T05:08:22.690Z,-3.60
2018-12-01T05:10:51.030Z,-3.59
2018-12-01T05:13:19.363Z,-3.60
2018-12-01T05:15:47.691Z,-3.58
2018-12-01T05:18:16.029Z,-3.59
2018-12-01T05:20:44.367Z,-3.60
2018-12-01T05:23:12.703Z,-3.59
2018-12-01T05:25:41.045Z,-3.61
2018-12-01T05:28:09.378Z,-3.64
2018-12-01T05:30:37.720Z,-3.69
2018-12-01T05:33:06.055Z,-3.69
2018-12-01T05:35:34.402Z,-3.67
2018-12-01T05:38:02.734Z,-3.69
2018-12-01T05:40:31.059Z,-3.69
2018-12-01T05:42:59.398Z,-3.67
2018-12-01T05:45:27.730Z,-3.65
2018-12-01T05:47:56.082Z,-3.63
2018-12-01T05:50:24.417Z,-3.67
2018-12-01T05:52:52.763Z,-3.69
2018-12-01T05:55:21.099Z,-3.73
2018-12-01T05:57:49.439Z,-3.76
2018-12-01T06:00:17.775Z,-3.79
2018-12-01T06:02:46.109Z,-3.79
2018-12-01T06:05:14.439Z,-3.80
2018-12-01T06:07:42.774Z,-3.80
2018-12-01T06:10:11.107Z,-3.80
2018-12-01T06:12:39.437Z,-3.82
2018-12-01T06:15:07.771Z,-3.85
2018-12-01T06:17:36.104Z,-3.89
2018-12-01T06:20:04.441Z,-3.91
2018-12-01T06:22:32.774Z,-3.90
2018-12-01T06:25:01.110Z,-3.91
2018-12-01T06:27:29.455Z,-3.95
2018-12-01T06:29:57.795Z,-4.05
2018-12-01T06:32:26.263Z,-4.14
2018-12-01T06:34:54.596Z,-4.16
2018-12-01T06:37:22.932Z,-4.20
2018-12-01T06:39:51.291Z,-4.22
2018-12-01T06:42:19.641Z,-4.24
2018-12-01T06:44:47.986Z,-4.24
2018-12-01T06:47:16.329Z,-4.26
2018-12-01T06:49:44.644Z,-4.28
2018-12-01T06:52:12.990Z,-4.26
2018-12-01T06:54:41.324Z,-4.26
2018-12-01T06:57:09.674Z,-4.30
2018-12-01T06:59:38.005Z,-4.26
2018-12-01T07:02:06.356Z,-4.26
2018-12-01T07:04:34.696Z,-4.24
2018-12-01T07:07:03.032Z,-4.24
2018-12-01T07:09:31.377Z,-4.25
2018-12-01T07:11:59.754Z,-4.26
2018-12-01T07:14:28.137Z,-4.25
2018-12-01T07:16:56.472Z,-4.33
2018-12-01T07:19:25.294Z,-4.37
2018-12-01T07:21:53.425Z,-4.36
2018-12-01T07:24:21.763Z,-4.37
2018-12-01T07:26:50.099Z,-4.35
2018-12-01T07:29:18.429Z,-4.30
2018-12-01T07:31:46.773Z,-4.27
2018-12-01T07:34:15.107Z,-4.23
2018-12-01T07:36:43.444Z,-4.21
2018-12-01T07:39:11.780Z,-4.22
2018-12-01T07:41:40.116Z,-4.20
2018-12-01T07:44:08.456Z,-4.16
2018-12-01T07:46:36.792Z,-4.11
2018-12-01T07:49:05.175Z,-4.08
2018-12-01T07:51:33.513Z,-4.03
2018-12-01T07:54:02.320Z,-3.99
2018-12-01T07:56:30.685Z,-3.95
2018-12-01T07:58:59.030Z,-3.91
2018-12-01T08:01:27.378Z,-3.91
2018-12-01T08:03:55.728Z,-3.91
2018-12-01T08:06:24.574Z,-3.95
2018-12-01T08:08:52.600Z,-4.00
2018-12-01T08:11:21.354Z,-3.97
2018-12-01T08:13:49.670Z,-3.89
2018-12-01T08:16:18.024Z,-3.83
2018-12-01T08:18:46.380Z,-3.76
2018-12-01T08:21:15.692Z,-3.70
2018-12-01T08:23:44.040Z,-3.65
2018-12-01T08:26:12.411Z,-3.65
2018-12-01T08:28:40.743Z,-3.62
2018-12-01T08:31:09.093Z,-3.54
2018-12-01T08:33:37.483Z,-3.46
2018-12-01T08:36:05.854Z,-3.37
2018-12-01T08:38:34.955Z,-3.35
2018-12-01T08:41:03.304Z,-3.32
2018-12-01T08:43:31.640Z,-3.31
2018-12-01T08:46:00.241Z,-3.26
2018-12-01T08:48:28.355Z,-3.27
2018-12-01T08:50:56.769Z,-3.20
2018-12-01T08:53:25.441Z,-3.16
2018-12-01T08:55:53.800Z,-3.09
2018-12-01T08:58:24.563Z,-3.00
2018-12-01T09:00:52.896Z,-2.88
2018-12-01T09:03:21.235Z,-2.79
2018-12-01T09:05:49.573Z,-2.70
2018-12-01T09:08:17.936Z,-2.61
2018-12-01T09:10:46.291Z,-2.55
2018-12-01T09:13:14.630Z,-2.47
2018-12-01T09:15:42.973Z,-2.39
2018-12-01T09:18:11.311Z,-2.29
2018-12-01T09:20:39.684Z,-2.24
2018-12-01T09:23:08.042Z,-2.16
2018-12-01T09:25:36.372Z,-2.12
2018-12-01T09:28:05.741Z,-2.03
2018-12-01T09:30:34.073Z,-1.94
2018-12-01T09:33:02.678Z,-1.81
2018-12-01T09:35:30.845Z,-1.72
2018-12-01T09:37:59.186Z,-1.64
2018-12-01T09:40:27.566Z,-1.62
2018-12-01T09:42:56.541Z,-1.57
2018-12-01T09:45:24.896Z,-1.53
2018-12-01T09:47:53.239Z,-1.53
2018-12-01T09:50:21.593Z,-1.48
2018-12-01T09:52:49.913Z,-1.39
2018-12-01T09:55:18.285Z,-1.35
2018-12-01T09:57:46.622Z,-1.34
2018-12-01T10:00:14.982Z,-1.32
2018-12-01T10:02:43.360Z,-1.28
2018-12-01T10:05:11.719Z,-1.22
2018-12-01T10:07:40.072Z,-1.15
2018-12-01T10:10:08.409Z,-1.08
2018-12-01T10:12:36.758Z,-1.01
2018-12-01T10:15:05.088Z,-0.98
2018-12-01T10:17:35.286Z,-0.95
2018-12-01T10:20:04.171Z,-0.89
2018-12-01T10:22:32.526Z,-0.86
2018-12-01T10:25:00.884Z,-0.82
2018-12-01T10:27:29.746Z,-0.80
2018-12-01T10:29:57.810Z,-0.76
2018-12-01T10:32:26.148Z,-0.77
2018-12-01T10:34:54.520Z,-0.81
2018-12-01T10:37:22.917Z,-0.85
2018-12-01T10:39:51.246Z,-0.80
2018-12-01T10:42:19.842Z,-0.73
2018-12-01T10:44:48.194Z,-0.64
2018-12-01T10:47:16.819Z,-0.55
2018-12-01T10:49:44.935Z,-0.52
2018-12-01T10:52:13.833Z,-0.41
2018-12-01T10:54:42.980Z,-0.24
2018-12-01T10:57:11.605Z,-0.09
2018-12-01T10:59:38.425Z,-0.04
2018-12-01T11:02:06.757Z,-0.02
2018-12-01T11:04:35.138Z,0.01
2018-12-01T11:07:03.716Z,0.04
2018-12-01T11:09:32.105Z,0.03
2018-12-01T11:12:00.933Z,0.05
2018-12-01T11:14:30.021Z,0.08
2018-12-01T11:16:58.383Z,0.14
2018-12-01T11:19:26.516Z,0.18
2018-12-01T11:21:55.542Z,0.23
2018-12-01T11:24:23.906Z,0.28
2018-12-01T11:26:52.960Z,0.28
2018-12-01T11:29:21.287Z,0.26
2018-12-01T11:31:50.449Z,0.23
2018-12-01T11:34:18.844Z,0.21
2018-12-01T11:36:47.199Z,0.25
2018-12-01T11:39:16.013Z,0.27
2018-12-01T11:41:44.443Z,0.26
2018-12-01T11:44:12.779Z,0.23
2018-12-01T11:46:41.128Z,0.18
2018-12-01T11:49:09.724Z,0.12
2018-12-01T11:51:38.105Z,0.12
2018-12-01T11:54:06.470Z,0.10
2018-12-01T11:56:34.887Z,0.07
2018-12-01T11:59:03.255Z,0.04
2018-12-01T12:01:31.624Z,-0.01
2018-12-01T12:04:00.118Z,0.00
2018-12-01T12:06:28.841Z,0.07
2018-12-01T12:08:57.691Z,0.08
2018-12-01T12:11:26.548Z,0.10
2018-12-01T12:13:54.964Z,0.15
2018-12-01T12:16:23.542Z,0.10
2018-12-01T12:18:52.470Z,0.04
2018-12-01T12:21:21.435Z,0.05
2018-12-01T12:23:49.926Z,0.10
2018-12-01T12:26:18.274Z,0.14
2018-12-01T12:28:46.691Z,0.19
2018-12-01T12:31:15.195Z,0.22
2018-12-01T12:33:43.566Z,0.24
2018-12-01T12:36:13.806Z,0.22
2018-12-01T12:38:42.035Z,0.23
2018-12-01T12:41:10.539Z,0.25
2018-12-01T12:43:38.873Z,0.27
2018-12-01T12:46:08.050Z,0.27
2018-12-01T12:48:36.635Z,0.22
2018-12-01T12:51:05.057Z,0.20
2018-12-01T12:53:33.775Z,0.13
2018-12-01T12:56:01.885Z,-0.01
2018-12-01T12:58:30.425Z,-0.09
2018-12-01T13:00:59.215Z,-0.09
2018-12-01T13:03:27.586Z,-0.08
2018-12-01T13:05:56.900Z,-0.10
2018-12-01T13:08:25.315Z,-0.08
2018-12-01T13:10:53.730Z,-0.06
2018-12-01T13:13:22.088Z,-0.05
2018-12-01T13:15:50.538Z,-0.02
2018-12-01T13:18:19.427Z,-0.01
2018-12-01T13:20:48.153Z,0.03
2018-12-01T13:23:16.522Z,0.06
2018-12-01T13:25:44.889Z,0.07
2018-12-01T13:28:13.845Z,0.08
2018-12-01T13:30:42.164Z,0.14
2018-12-01T13:33:10.495Z,0.22
2018-12-01T13:35:38.858Z,0.27
2018-12-01T13:38:07.172Z,0.30
2018-12-01T13:40:35.516Z,0.30
2018-12-01T13:43:04.174Z,0.27
2018-12-01T13:45:32.505Z,0.29
2018-12-01T13:48:00.842Z,0.29
2018-12-01T13:50:30.104Z,0.26
2018-12-01T13:52:58.440Z,0.28
2018-12-01T13:55:26.765Z,0.29
2018-12-01T13:57:55.094Z,0.30
2018-12-01T14:00:23.497Z,0.27
2018-12-01T14:02:51.830Z,0.24
2018-12-01T14:05:20.178Z,0.26
2018-12-01T14:07:48.524Z,0.29
2018-12-01T14:10:16.935Z,0.30
2018-12-01T14:12:45.310Z,0.31
2018-12-01T14:15:13.718Z,0.35
2018-12-01T14:17:42.082Z,0.33
2018-12-01T14:23:04.504Z,0.26
2018-12-01T14:25:33.122Z,0.18
2018-12-01T14:28:01.516Z,0.14
2018-12-01T14:30:29.891Z,0.19
2018-12-01T14:32:58.271Z,0.22
2018-12-01T14:35:26.626Z,0.23
2018-12-01T14:37:55.323Z,0.22
2018-12-01T14:40:24.492Z,0.20
2018-12-01T14:42:52.789Z,0.24
2018-12-01T14:45:21.118Z,0.25
2018-12-01T14:47:49.497Z,0.21
2018-12-01T14:50:18.083Z,0.19
2018-12-01T14:52:46.214Z,0.22
2018-12-01T14:55:14.610Z,0.26
2018-12-01T14:57:42.931Z,0.28
2018-12-01T15:00:11.271Z,0.25
2018-12-01T15:02:39.626Z,0.22
2018-12-01T15:05:07.963Z,0.19
2018-12-01T15:07:36.324Z,0.17
2018-12-01T15:10:04.657Z,0.18
2018-12-01T15:12:32.995Z,0.22
2018-12-01T15:15:01.394Z,0.23
2018-12-01T15:17:30.419Z,0.21
2018-12-01T15:19:59.033Z,0.16
2018-12-01T15:22:27.128Z,0.19
2018-12-01T15:24:55.488Z,0.32
2018-12-01T15:27:23.872Z,0.38
2018-12-01T15:29:52.237Z,0.41
2018-12-01T15:32:20.655Z,0.41
2018-12-01T15:34:49.110Z,0.44
2018-12-01T15:37:17.488Z,0.45
2018-12-01T15:39:45.820Z,0.44
2018-12-01T15:42:14.183Z,0.44
2018-12-01T15:44:42.525Z,0.44
2018-12-01T15:47:10.945Z,0.48
2018-12-01T15:49:39.375Z,0.49
2018-12-01T15:52:07.706Z,0.46
2018-12-01T15:54:36.081Z,0.46
2018-12-01T15:57:04.419Z,0.45
2018-12-01T15:59:32.830Z,0.44
2018-12-01T16:02:01.167Z,0.42
2018-12-01T16:04:29.594Z,0.44
2018-12-01T16:06:57.929Z,0.47
2018-12-01T16:09:26.308Z,0.48
2018-12-01T16:11:54.635Z,0.48
2018-12-01T16:14:23.003Z,0.49
2018-12-01T16:16:51.364Z,0.48
2018-12-01T16:19:19.915Z,0.46
2018-12-01T16:21:48.044Z,0.43
2018-12-01T16:24:16.417Z,0.48
2018-12-01T16:26:44.827Z,0.52
2018-12-01T16:29:13.174Z,0.53
2018-12-01T16:31:41.522Z,0.57
2018-12-01T16:34:09.867Z,0.60
2018-12-01T16:36:38.236Z,0.60
2018-12-01T16:39:06.702Z,0.61
2018-12-01T16:41:35.521Z,0.61
2018-12-01T16:44:03.709Z,0.60
2018-12-01T16:46:32.065Z,0.62
2018-12-01T16:49:00.469Z,0.63
2018-12-01T16:51:28.790Z,0.64
2018-12-01T16:53:57.128Z,0.61
2018-12-01T16:56:25.662Z,0.60
2018-12-01T16:58:54.007Z,0.58
2018-12-01T17:01:22.355Z,0.58
2018-12-01T17:03:50.852Z,0.57
2018-12-01T17:06:19.280Z,0.59
2018-12-01T17:08:47.745Z,0.62
2018-12-01T17:11:16.228Z,0.64
2018-12-01T17:13:44.650Z,0.63
2018-12-01T17:16:12.974Z,0.62
2018-12-01T17:18:41.440Z,0.62
2018-12-01T17:21:10.469Z,0.61
2018-12-01T17:23:39.019Z,0.58
2018-12-01T17:26:07.125Z,0.60
2018-12-01T17:28:35.574Z,0.57
2018-12-01T17:31:03.954Z,0.51
2018-12-01T17:33:32.717Z,0.50
2018-12-01T17:36:01.778Z,0.49
2018-12-01T17:38:30.116Z,0.47
2018-12-01T17:40:58.474Z,0.49
2018-12-01T17:43:26.865Z,0.50
2018-12-01T17:45:55.220Z,0.51
2018-12-01T17:48:23.637Z,0.58
2018-12-01T17:50:52.048Z,0.61
2018-12-01T17:53:20.427Z,0.63
2018-12-01T17:55:48.797Z,0.69
2018-12-01T17:58:17.194Z,0.76
2018-12-01T18:00:45.537Z,0.83
2018-12-01T18:03:13.904Z,0.84
2018-12-01T18:05:43.225Z,0.84
2018-12-01T18:08:11.672Z,0.88
2018-12-01T18:10:39.975Z,0.88
2018-12-01T18:13:08.367Z,0.88
2018-12-01T18:15:36.698Z,0.89
2018-12-01T18:18:05.022Z,0.90
2018-12-01T18:20:33.359Z,0.90
2018-12-01T18:23:01.881Z,0.91
2018-12-01T18:25:30.241Z,0.94
2018-12-01T18:27:58.624Z,0.97
2018-12-01T18:30:26.973Z,1.03
2018-12-01T18:32:55.324Z,1.09
2018-12-01T18:35:23.691Z,1.14
2018-12-01T18:37:52.021Z,1.19
2018-12-01T18:40:20.382Z,1.22
2018-12-01T18:42:48.719Z,1.26
2018-12-01T18:45:17.059Z,1.28
2018-12-01T18:47:45.404Z,1.30
2018-12-01T18:50:13.759Z,1.27
2018-12-01T18:52:42.085Z,1.25
2018-12-01T18:55:10.426Z,1.24
2018-12-01T18:57:38.769Z,1.24
2018-12-01T19:00:07.120Z,1.24
2018-12-01T19:02:35.619Z,1.25
2018-12-01T19:05:03.978Z,1.27
2018-12-01T19:07:32.304Z,1.26
2018-12-01T19:10:00.668Z,1.28
2018-12-01T19:12:29.017Z,1.31
2018-12-01T19:14:57.430Z,1.34
2018-12-01T19:17:25.776Z,1.36
2018-12-01T19:19:55.176Z,1.38
2018-12-01T19:22:22.568Z,1.40
2018-12-01T19:24:50.934Z,1.42
2018-12-01T19:27:19.280Z,1.42
2018-12-01T19:29:47.610Z,1.43
2018-12-01T19:32:15.953Z,1.44
2018-12-01T19:34:44.301Z,1.47
2018-12-01T19:37:12.645Z,1.50
2018-12-01T19:39:41.105Z,1.53
2018-12-01T19:42:09.434Z,1.55
2018-12-01T19:44:37.770Z,1.55
2018-12-01T19:47:06.096Z,1.56
2018-12-01T19:49:34.431Z,1.56
2018-12-01T19:52:03.287Z,1.57
2018-12-01T19:54:31.350Z,1.57
2018-12-01T19:56:59.697Z,1.59
2018-12-01T19:59:28.036Z,1.61
2018-12-01T20:01:56.411Z,1.62
2018-12-01T20:04:24.849Z,1.64
2018-12-01T20:06:53.191Z,1.64
2018-12-01T20:09:21.503Z,1.67
2018-12-01T20:11:49.989Z,1.70
2018-12-01T20:14:18.369Z,1.72
2018-12-01T20:16:46.707Z,1.73
2018-12-01T20:19:15.073Z,1.71
2018-12-01T20:21:44.003Z,1.73
2018-12-01T20:24:12.515Z,1.75
2018-12-01T20:26:40.852Z,1.75
2018-12-01T20:29:09.186Z,1.75
2018-12-01T20:31:37.600Z,1.76
2018-12-01T20:34:06.042Z,1.78
2018-12-01T20:36:34.366Z,1.81
2018-12-01T20:39:02.713Z,1.83
2018-12-01T20:41:31.044Z,1.84
2018-12-01T20:43:59.393Z,1.84
2018-12-01T20:46:27.782Z,1.84
2018-12-01T20:48:56.131Z,1.85
2018-12-01T20:51:24.790Z,1.86
2018-12-01T20:53:53.376Z,1.87
2018-12-01T20:56:21.719Z,1.88
2018-12-01T20:58:50.144Z,1.88
2018-12-01T21:01:18.694Z,1.88
2018-12-01T21:03:46.803Z,1.86
2018-12-01T21:06:15.161Z,1.85
2018-12-01T21:08:43.507Z,1.83
2018-12-01T21:11:11.847Z,1.81
2018-12-01T21:13:40.225Z,1.83
2018-12-01T21:16:08.564Z,1.85
2018-12-01T21:18:36.918Z,1.87
2018-12-01T21:21:05.261Z,1.89
2018-12-01T21:23:33.880Z,1.94
2018-12-01T21:26:02.233Z,1.97
2018-12-01T21:28:30.589Z,1.99
2018-12-01T21:31:00.092Z,2.03
2018-12-01T21:33:28.508Z,2.04
2018-12-01T21:35:56.919Z,2.06
2018-12-01T21:38:25.244Z,2.05
2018-12-01T21:40:53.585Z,2.03
2018-12-01T21:43:21.919Z,2.02
2018-12-01T21:45:50.254Z,2.01
2018-12-01T21:48:18.630Z,2.01
2018-12-01T21:50:47.052Z,2.04
2018-12-01T21:53:15.375Z,2.05
2018-12-01T21:55:43.755Z,2.02
2018-12-01T21:58:12.128Z,1.98
2018-12-01T22:00:40.465Z,1.97
2018-12-01T22:03:08.799Z,1.96
2018-12-01T22:05:37.139Z,1.96
2018-12-01T22:08:05.498Z,1.99
2018-12-01T22:10:33.839Z,2.03
2018-12-01T22:13:02.178Z,2.07
2018-12-01T22:15:30.516Z,2.09
2018-12-01T22:17:58.913Z,2.09
2018-12-01T22:20:27.342Z,2.11
2018-12-01T22:22:56.005Z,2.12
2018-12-01T22:25:24.354Z,2.15
2018-12-01T22:27:52.685Z,2.14
2018-12-01T22:30:21.063Z,2.12
2018-12-01T22:32:49.414Z,2.13
2018-12-01T22:35:17.810Z,2.13
2018-12-01T22:37:46.143Z,2.14
2018-12-01T22:40:14.566Z,2.14
2018-12-01T22:42:43.175Z,2.15
2018-12-01T22:45:11.282Z,2.15
2018-12-01T22:47:40.383Z,2.15
2018-12-01T22:50:09.228Z,2.13
2018-12-01T22:52:38.122Z,2.09
2018-12-01T22:55:06.514Z,2.09
2018-12-01T22:57:35.315Z,2.11
2018-12-01T23:00:03.881Z,2.13
2018-12-01T23:02:31.984Z,2.14
2018-12-01T23:05:00.310Z,2.13
2018-12-01T23:07:28.645Z,2.12
2018-12-01T23:09:56.982Z,2.13
2018-12-01T23:12:25.326Z,2.16
2018-12-01T23:14:53.666Z,2.18
2018-12-01T23:17:21.994Z,2.17
2018-12-01T23:19:50.325Z,2.16
2018-12-01T23:22:19.309Z,2.19
2018-12-01T23:24:47.628Z,2.21
2018-12-01T23:27:15.985Z,2.23
2018-12-01T23:29:44.332Z,2.25
2018-12-01T23:32:12.786Z,2.25
2018-12-01T23:34:41.107Z,2.27
2018-12-01T23:37:09.782Z,2.27
2018-12-01T23:39:38.124Z,2.27
2018-12-01T23:42:06.465Z,2.29
2018-12-01T23:44:34.803Z,2.31
2018-12-01T23:47:03.140Z,2.34
2018-12-01T23:49:31.482Z,2.37
2018-12-01T23:51:59.824Z,2.38
2018-12-01T23:54:28.164Z,2.40
2018-12-01T23:56:56.527Z,2.43
2018-12-01T23:59:24.908Z,2.44
